KCEY

Kyle-Oakley Field Airport

Murray, Kentucky, USA
METAR KCEY 201615Z AUTO 19007KT 10SM FEW023 OVC040 26/23 A2994 RMK AO1
Observed Flight Rules
Aug-20 @ 16:15 UTC (11 minutes ago) Visual Flight Rules
Wind Visibility Clouds
190° at 7 knots 10 miles
  • Few at 2,300' AGL
  • Overcast at 4,000' AGL
Temperatures Readings
Current 26°C / 79°F
Dewpoint 23°C / 73°F
Humidity 84%
Altimeter 29.94" Hg
Pressure 1014 hPa
Elevation 176
METAR KCEY 201615Z AUTO 19007KT 10SM FEW023 OVC040 26/23 A2994 RMK AO1
Observed Flight Rules
Aug-20 @ 16:15 UTC
(11 minutes ago)
VFR
Wind Visibility
190° at 7 knots 10 miles
Clouds
  • Few at 2,300' AGL
  • Overcast at 4,000' AGL
Temperature Dewpoint
26°C / 79°F 23°C / 73°F
Humidity Altimeter Pressure
84% 29.94" Hg 1014 hPa